Flight Track Log - Related Links

Times and Time Zones

All times are in EST time to prevent confusion due to time zone crossing. See the SWA4635 flight status page for this flight to view local times or setup timezone preferences in your user account.

Time Position Orientation Groundspeed Altitude Reporting Facility
EST Latitude Longitude Course Direction KTS MPH feet Rate Location/Type
Mon 07:56:39 PM 39.8833 -104.5833 90° East 176 203 6,800  Level Denver TRACON
Mon 07:57:39 PM 39.8833 -104.5167 90° East 239 275 8,600 1,714 Climbing Denver TRACON
Mon 07:58:10 PM 39.8747 -104.4650 102° East 252 290 9,400 2,065 Climbing Denver Center
Mon 07:59:12 PM 39.8775 -104.3583 88° East 291 335 11,800 1,935 Climbing Denver Center
Mon 08:00:14 PM 39.8786 -104.2206 89° East 355 409 13,400 2,032 Climbing Denver Center
Mon 08:01:16 PM 39.8806 -104.0817 89° East 382 440 16,000 2,274 Climbing Denver Center
Mon 08:02:18 PM 39.8811 -103.9244 90° East 403 464 18,100 2,032 Climbing Denver Center
Mon 08:03:20 PM 39.8825 -103.7706 89° East 424 488 20,200 1,935 Climbing Denver Center
Mon 08:04:22 PM 39.8967 -103.6119 83° East 427 491 22,100 1,548 Climbing Denver Center
Mon 08:05:24 PM 39.9164 -103.4483 81° East 460 529 23,400 1,355 Climbing Denver Center
Mon 08:06:26 PM 39.9358 -103.2747 82° East 482 555 24,900 1,610 Climbing Denver Center
Mon 08:07:27 PM 39.9553 -103.0969 82° East 493 567 26,700 1,707 Climbing Denver Center
Mon 08:08:29 PM 39.9739 -102.9164 82° East 502 578 28,400 1,645 Climbing Denver Center
Mon 08:09:31 PM 39.9975 -102.7019 82° East 499 574 30,100 1,403 Climbing Denver Center
Mon 08:10:33 PM 40.0172 -102.5219 82° East 507 583 31,300 1,161 Climbing Denver Center
Mon 08:11:35 PM 40.0350 -102.3469 82° East 509 586 32,500 1,065 Climbing Denver Center
Mon 08:12:37 PM 40.0567 -102.1422 82° East 511 588 33,500 1,015 Climbing Denver Center
Mon 08:13:51 PM 40.0803 -101.9036 83° East 520 598 34,800 662 Climbing Denver Center
Mon 08:14:53 PM 40.0975 -101.7269 83° East 516 594 35,000 97 Climbing Denver Center
Mon 08:15:55 PM 40.1181 -101.5189 83° East 518 596 35,000 97 Level Denver Center
Mon 08:16:57 PM 40.1347 -101.3375 83° East 525 604 35,200 435 Climbing Denver Center
Mon 08:17:59 PM 40.1539 -101.1575 82° East 526 605 35,900 726 Climbing Denver Center
Mon 08:19:01 PM 40.1722 -100.9433 84° East 531 611 36,700 532 Climbing Denver Center
Mon 08:20:03 PM 40.1886 -100.7611 83° East 531 611 37,000 146 Climbing Denver Center
Mon 08:21:04 PM 40.2122 -100.5517 82° East 527 606 37,000  Level Denver Center
Mon 08:22:06 PM 40.2414 -100.3742 78° East 526 605 37,000  Level Denver Center
Mon 08:23:08 PM 40.2747 -100.1697 78° East 519 597 37,000  Level Denver Center
Mon 08:24:10 PM 40.3033 -99.9914 78° East 522 601 37,000  Level Denver Center
Mon 08:25:12 PM 40.3342 -99.7925 78° East 524 603 37,000  Level Denver Center
Mon 08:26:13 PM 40.3642 -99.6053 78° East 526 605 37,000  Level Denver Center
Mon 08:27:15 PM 40.3989 -99.4194 76° East 526 605 37,000  Level Denver Center
Mon 08:28:17 PM 40.4328 -99.2350 76° East 524 603 37,000  Level Denver Center
Mon 08:29:19 PM 40.4722 -99.0122 77° East 524 603 37,000  Level Denver Center
Mon 08:30:21 PM 40.5047 -98.8269 77° East 523 602 37,000  Level Denver Center
Mon 08:31:22 PM 40.5381 -98.6403 77° East 526 605 37,000  Level Denver Center
Mon 08:32:24 PM 40.5700 -98.4553 77° East 525 604 37,000  Level Denver Center
Mon 08:33:53 PM 40.6200 -98.1567 77° East 525 604 37,000  Level Minneapolis Center
Mon 08:34:54 PM 40.6511 -97.9675 78° East 526 605 37,000  Level Minneapolis Center
Mon 08:35:56 PM 40.6831 -97.7783 77° East 528 608 37,000  Level Minneapolis Center
Mon 08:36:58 PM 40.7136 -97.5892 78° East 528 608 37,000  Level Minneapolis Center
Mon 08:38:00 PM 40.7447 -97.4008 78° East 528 608 37,000  Level Minneapolis Center
Mon 08:39:02 PM 40.7753 -97.2156 78° East 528 608 37,000  Level Minneapolis Center
Mon 08:40:04 PM 40.8117 -96.9875 78° East 528 608 37,000  Level Minneapolis Center
Mon 08:41:06 PM 40.8417 -96.7978 78° East 528 608 37,000  Level Minneapolis Center
Mon 08:42:08 PM 40.8706 -96.6053 79° East 533 613 37,000  Level Minneapolis Center
Mon 08:43:10 PM 40.9003 -96.4131 78° East 533 613 37,000  Level Minneapolis Center
Mon 08:44:12 PM 40.9289 -96.2206 79° East 534 615 37,000  Level Minneapolis Center
Mon 08:45:14 PM 40.9581 -96.0286 79° East 535 616 37,000  Level Minneapolis Center
Mon 08:46:16 PM 40.9911 -95.7997 79° East 535 616 37,000  Level Minneapolis Center
Mon 08:47:18 PM 41.0189 -95.6081 79° East 535 616 37,000  Level Minneapolis Center
Mon 08:48:21 PM 41.0467 -95.4147 79° East 536 617 37,000  Level Minneapolis Center
Mon 08:49:23 PM 41.0750 -95.2225 79° East 536 617 37,000  Level Minneapolis Center
Mon 08:50:25 PM 41.1022 -95.0261 80° East 537 618 37,000  Level Minneapolis Center
Mon 08:51:27 PM 41.1339 -94.7925 80° East 537 618 37,000  Level Minneapolis Center
Mon 08:52:29 PM 41.1589 -94.5978 80° East 537 618 37,000  Level Minneapolis Center
Mon 08:53:31 PM 41.1878 -94.4017 79° East 537 618 37,000  Level Minneapolis Center
Mon 08:54:33 PM 41.2117 -94.2028 81° East 539 620 37,000  Level Minneapolis Center
Mon 08:55:35 PM 41.2372 -94.0044 80° East 540 621 37,000  Level Minneapolis Center
Mon 08:56:37 PM 41.2681 -93.8089 78° East 540 621 37,000  Level Minneapolis Center
Mon 08:57:39 PM 41.3053 -93.5750 78° East 540 621 37,000  Level Minneapolis Center
Mon 08:58:41 PM 41.3347 -93.3786 79° East 540 621 37,000  Level Minneapolis Center
Mon 08:59:43 PM 41.3642 -93.1814 79° East 540 621 37,000  Level Minneapolis Center
Mon 09:00:45 PM 41.3931 -92.9844 79° East 541 623 37,000  Level Minneapolis Center
Mon 09:01:48 PM 41.4217 -92.7858 79° East 541 623 37,000  Level Minneapolis Center
Mon 09:02:50 PM 41.4508 -92.5872 79° East 542 624 37,000  Level Minneapolis Center
Mon 09:03:22 PM 41.4675 -92.4650 80° East 549 632 37,000  Level Chicago Center
Mon 09:04:24 PM 41.4964 -92.2508 80° East 548 631 37,000  Level Chicago Center
Mon 09:05:25 PM 41.5242 -92.0511 79° East 552 635 37,000  Level Chicago Center
Mon 09:06:27 PM 41.5517 -91.8539 79° East 548 631 37,000  Level Chicago Center
Mon 09:07:29 PM 41.5783 -91.6553 80° East 549 632 37,000  Level Chicago Center
Mon 09:08:30 PM 41.6047 -91.4561 80° East 549 632 37,000  Level Chicago Center
Mon 09:09:32 PM 41.6350 -91.2189 80° East 546 628 37,000  Level Chicago Center
Mon 09:10:33 PM 41.6603 -91.0186 80° East 550 633 37,000  Level Chicago Center
Mon 09:11:35 PM 41.6867 -90.8189 80° East 550 633 37,000  Level Chicago Center
Mon 09:12:37 PM 41.7106 -90.6172 81° East 552 635 37,000  Level Chicago Center
Mon 09:13:38 PM 41.7336 -90.4247 81° East 549 632 37,000  Level Chicago Center
Mon 09:14:40 PM 41.7631 -90.1822 81° East 548 631 37,000  Level Chicago Center
Mon 09:15:41 PM 41.7875 -89.9786 81° East 550 633 37,000  Level Chicago Center
Mon 09:16:43 PM 41.8100 -89.7906 81° East 551 634 37,000  Level Chicago Center
Mon 09:17:44 PM 41.8319 -89.5875 82° East 552 635 37,000  Level Chicago Center
Mon 09:18:46 PM 41.8583 -89.3669 81° East 551 634 37,000  Level Chicago Center
Mon 09:19:47 PM 41.8817 -89.1464 82° East 545 627 37,000  Level Chicago Center
Mon 09:20:48 PM 41.9036 -88.9453 82° East 547 629 37,000  Level Chicago Center
Mon 09:21:50 PM 41.9261 -88.7444 81° East 547 629 37,000  Level Chicago Center
Mon 09:22:51 PM 41.9469 -88.5431 82° East 546 628 37,000  Level Chicago Center
Mon 09:23:53 PM 41.9669 -88.3406 82° East 550 633 37,000  Level Chicago Center
Mon 09:24:54 PM 41.9883 -88.1397 82° East 546 628 37,000  Level Chicago Center
Mon 09:25:55 PM 42.0089 -87.9386 82° East 546 628 37,000  Level Chicago Center
Mon 09:26:57 PM 42.0322 -87.6950 83° East 549 632 37,000  Level Chicago Center
Mon 09:27:58 PM 42.0511 -87.4931 83° East 547 629 37,000  Level Chicago Center
Mon 09:30:00 PM 42.0897 -87.0875 85° East 548 631 37,000  Level Chicago Center
Mon 09:31:02 PM 42.1094 -86.8689 83° East 552 635 37,000  Level Chicago Center
Mon 09:32:03 PM 42.1269 -86.6633 83° East 552 635 37,000  Level Chicago Center
Mon 09:33:04 PM 42.1456 -86.4567 83° East 553 636 37,000  Level Chicago Center
Mon 09:34:05 PM 42.1619 -86.2519 84° East 551 634 37,000  Level Chicago Center
Mon 09:35:07 PM 42.1789 -86.0475 84° East 548 631 37,000  Level Chicago Center
Mon 09:36:08 PM 42.1947 -85.8597 83° East 551 634 37,000  Level Chicago Center
Mon 09:37:09 PM 42.2136 -85.6158 84° East 549 632 37,000  Level Chicago Center
Mon 09:38:10 PM 42.2300 -85.4131 84° East 548 631 37,000  Level Chicago Center
Mon 09:39:11 PM 42.2453 -85.2111 84° East 547 629 37,000  Level Chicago Center
Mon 09:40:12 PM 42.2600 -85.0047 84° East 553 636 37,000  Level Chicago Center
Mon 09:41:14 PM 42.2753 -84.8008 84° East 551 634 37,000  Level Chicago Center
Mon 09:42:15 PM 42.2903 -84.5964 84° East 551 634 37,000  Level Chicago Center
Mon 09:43:16 PM 42.3039 -84.3922 85° East 550 633 37,000  Level Chicago Center
Mon 09:43:46 PM 42.3117 -84.2756 85° East 550 633 37,000  Level Cleveland Center
Mon 09:44:48 PM 42.3233 -84.0725 85° East 547 629 37,000  Level Cleveland Center
Mon 09:45:49 PM 42.3367 -83.8686 85° East 547 629 37,000  Level Cleveland Center
Mon 09:46:50 PM 42.3483 -83.6631 86° East 546 628 37,000  Level Cleveland Center
Mon 09:47:52 PM 42.3597 -83.4544 86° East 544 626 37,000  Level Cleveland Center
Mon 09:48:53 PM 42.3733 -83.2486 85° East 544 626 37,000  Level Cleveland Center
Mon 09:49:54 PM 42.3850 -83.0394 86° East 549 632 37,000  Level Cleveland Center
Mon 09:50:56 PM 42.3961 -82.8325 86° East 549 632 37,000  Level Cleveland Center
Mon 09:51:57 PM 42.4069 -82.6253 86° East 550 633 37,000  Level Cleveland Center
Mon 09:52:58 PM 42.4178 -82.4192 86° East 550 633 37,000  Level Cleveland Center
Mon 09:53:59 PM 42.4292 -82.1722 86° East 550 633 37,000  Level Cleveland Center
Mon 09:55:01 PM 42.4389 -81.9606 86° East 550 633 37,000  Level Cleveland Center
Mon 09:56:02 PM 42.4486 -81.7519 86° East 550 633 37,000  Level Cleveland Center
Mon 09:57:03 PM 42.4572 -81.5447 87° East 549 632 37,000  Level Cleveland Center
Mon 09:58:04 PM 42.4656 -81.3375 87° East 547 629 37,000  Level Cleveland Center
Mon 09:59:05 PM 42.4750 -81.1308 86° East 547 629 37,000  Level Cleveland Center
Mon 10:00:07 PM 42.4831 -80.9250 87° East 545 627 37,000  Level Cleveland Center
Mon 10:01:08 PM 42.4900 -80.7181 87° East 545 627 37,000  Level Cleveland Center
Mon 10:02:09 PM 42.4972 -80.5125 87° East 543 625 37,000  Level Cleveland Center
Mon 10:03:10 PM 42.5042 -80.3047 87° East 543 625 37,000  Level Cleveland Center
Mon 10:04:11 PM 42.5097 -80.1336 87° East 543 625 37,000  Level Cleveland Center
Mon 10:05:13 PM 42.5178 -79.8736 88° East 545 627 37,000  Level Cleveland Center
Mon 10:06:14 PM 42.5236 -79.6686 88° East 545 627 37,000  Level Cleveland Center
Mon 10:07:15 PM 42.5286 -79.4647 88° East 545 627 37,000  Level Cleveland Center
Mon 10:08:16 PM 42.5328 -79.2606 88° East 545 627 37,000  Level Cleveland Center
Mon 10:09:17 PM 42.5369 -79.0567 88° East 545 627 37,000  Level Cleveland Center
Mon 10:10:18 PM 42.5408 -78.8522 88° East 544 626 37,000  Level Cleveland Center
Mon 10:11:20 PM 42.5439 -78.6497 89° East 543 625 37,000  Level Cleveland Center
Mon 10:12:21 PM 42.5417 -78.4492 91° East 537 618 37,000  Level Cleveland Center
Mon 10:13:22 PM 42.5392 -78.2469 91° East 537 618 37,000  Level Cleveland Center
Mon 10:14:23 PM 42.5372 -78.0447 91° East 538 619 37,000  Level Cleveland Center
Mon 10:15:24 PM 42.5344 -77.8014 91° East 542 624 37,000  Level Cleveland Center
Mon 10:16:26 PM 42.5319 -77.6208 91° East 544 626 37,000  Level Cleveland Center
Mon 10:17:27 PM 42.5281 -77.4058 91° East 542 624 37,000  Level Cleveland Center
Mon 10:18:28 PM 42.5233 -77.1989 92° East 551 634 37,000  Level Cleveland Center
Mon 10:19:29 PM 42.5186 -76.9925 92° East 551 634 37,000 -188 Level Cleveland Center
Mon 10:20:04 PM 42.5153 -76.8675 92° East 551 634 36,700 -821 Descending Boston Center
Mon 10:21:04 PM 42.5114 -76.6622 91° East 550 633 35,700 -850 Descending Boston Center
Mon 10:22:04 PM 42.5050 -76.4581 92° East 548 631 35,000 -350 Descending Boston Center
Mon 10:23:04 PM 42.4997 -76.2233 92° East 548 631 35,000 -148 Level Boston Center
Mon 10:24:06 PM 42.4925 -76.0172 93° East 548 631 34,700 -634 Descending Boston Center
Mon 10:25:07 PM 42.4864 -75.8131 92° East 548 631 33,700 -1,008 Descending Boston Center
Mon 10:26:05 PM 42.4806 -75.6075 92° East 549 632 32,700 -1,261 Descending Boston Center
Mon 10:27:06 PM 42.4731 -75.4019 93° East 551 634 31,200 -1,785 Descending Boston Center
Mon 10:28:06 PM 42.4661 -75.2036 93° East 535 616 29,100 -2,146 Descending Boston Center
Mon 10:29:09 PM 42.4725 -75.0081 87° East 525 604 26,800 -2,177 Descending Boston Center
Mon 10:30:10 PM 42.4756 -74.8161 89° East 519 597 24,600 -1,916 Descending Boston Center
Mon 10:31:08 PM 42.4792 -74.6267 88° East 510 587 23,000 -1,261 Descending Boston Center
Mon 10:32:09 PM 42.4817 -74.4506 89° East 477 549 22,100 -976 Descending Boston Center
Mon 10:33:11 PM 42.4611 -74.2828 99° East 456 525 21,000 -992 Descending Boston Center
Mon 10:34:10 PM 42.4367 -74.1231 102° East 448 516 20,100 -1,050 Descending Boston Center
Mon 10:35:11 PM 42.4083 -73.9444 102° East 439 505 18,900 -1,140 Descending Boston Center
Mon 10:36:11 PM 42.3808 -73.7731 102° East 438 504 17,800 -962 Descending Boston Center
Mon 10:36:57 PM 42.3628 -73.6547 102° East 427 491 17,200 -984 Descending Boston Center
Mon 10:37:12 PM 42.3569 -73.6186 102° East 423 487 16,800 -1,440 Descending Boston Center
Mon 10:37:22 PM 42.3533 -73.5958 102° East 419 482 16,600 -1,839 Descending Boston Center
Mon 10:38:14 PM 42.3325 -73.4672 102° East 411 473 14,900 -1,869 Descending Boston Center
Mon 10:38:23 PM 42.3294 -73.4497 103° East 402 463 14,700 -1,770 Descending Boston Center
Mon 10:39:15 PM 42.3097 -73.3278 102° East 399 459 13,100 -1,869 Descending Boston Center
Mon 10:39:24 PM 42.3053 -73.3039 104° East 392 451 12,800 -1,700 Descending Boston Center
Mon 10:40:15 PM 42.2881 -73.1858 101° East 388 447 11,400 -1,700 Descending Boston Center
Mon 10:40:24 PM 42.2814 -73.1669 115° Southeast 379 436 11,100 -1,345 Descending Boston Center
Mon 10:41:13 PM 42.2336 -73.0831 128° Southeast 335 386 10,100 -985 Descending Boston Center
Mon 10:41:31 PM 42.2256 -73.0475 107° East 319 367 10,000 -885 Descending Boston Center
Mon 10:42:14 PM 42.2153 -72.9628 99° East 331 381 9,200 -1,082 Descending Boston Center
Mon 10:42:32 PM 42.2089 -72.9281 104° East 318 366 8,900 -1,258 Descending Boston Center
Mon 10:43:16 PM 42.1967 -72.8408 101° East 310 357 7,900 -1,377 Descending Boston Center
Mon 10:43:33 PM 42.1900 -72.8167 110° East 298 343 7,500 -1,588 Descending Boston Center
Mon 10:44:24 PM 42.1708 -72.7197 105° East 285 328 6,100 -1,748 Descending Boston Center
Mon 10:45:16 PM 42.1539 -72.6350 105° East 283 326 4,500 -1,800 Descending Boston Center
Mon 10:45:34 PM 42.1417 -72.6164 132° Southeast 278 320 4,000 -1,574 Descending Boston Center
Mon 10:46:17 PM 42.0992 -72.5600 135° Southeast 280 322 2,900 -1,345 Descending Boston Center
Mon 10:46:32 PM 42.0869 -72.5447 137° Southeast 276 318 2,700 -393 Descending Boston Center
Mon 10:47:18 PM 42.0414 -72.5506 185° South 228 262 2,500 -197 Descending Boston Center
Mon 10:47:33 PM 42.0336 -72.5633 231° Southwest 189 217 2,500 -484 Level Boston Center
Mon 10:48:20 PM 42.0089 -72.5956 224° Southwest 172 198 2,000 -667 Descending Boston Center
Mon 10:48:36 PM 42.0011 -72.6067 227° Southwest 148 170 1,800 -931 Descending Boston Center
Mon 10:49:18 PM 41.9794 -72.6344 224° Southwest 153 176 1,100 -889 Descending Boston Center
Mon 10:49:30 PM 41.9731 -72.6400 213° Southwest 145 167 1,000 -885 Descending Boston Center
Mon 10:50:19 PM 41.9497 -72.6736 227° Southwest 151 174 200 -980 Descending Boston Center

Login

Don't have an account? Register now (free) for customized features, flight alerts, and more!